Hovedside
METAR-TAF:

METAR-TAF

Lufthavner :

Teheran, Iran

breddegrad: 35-41N, lengdegrad: 051-21E, høyde over havet: 1204 m

Gjeldene værobservasjon

Denne rapporten ble laget for 15 minutter siden, klokken 15:30 UTC
Vind 4 kt fra Sør
Temperatur 4°C
Luftfuktighet 87%
Trykk 1019 hPa
Sikt 10 km eller mer
Spredte skyer i en høyde av 3000 ft
Brutte skyer i en høyde av 10000 ft

METAR: OIII 201530Z 18004KT 9999 SCT030 BKN100 04/02 Q1019 A3010

Tid: 19:15 (15:45 UTC)

Varsel

Denne rapporten ble laget for 4 timer og 15 minutter siden, klokken 11:30 UTC
Varsel gyldig fra 20. klokken 12 UTC til 21. klokken 18 UTC
Vind 10 kt fra Vest
Sikt: 5000 m
Få skyer i en høyde av 3000 ft
Brutte skyer i en høyde av 10000 ft
dis
Blir
fra 20. klokken 16 UTC til 20. klokken 18 UTC
Få skyer i en høyde av 3000 ft
Spredte skyer i en høyde av 10000 ft
Blir
fra 21. klokken 03 UTC til 21. klokken 05 UTC
Sikt: 7000 m

TAF: OIII 201130Z 2012/2118 26010KT 5000 HZ FEW030 BKN100 BECMG 2016/2018 FEW030 SCT100 BECMG 2103/2105 7000

Værobservasjoner og værvarsel for over 4000 flyplasser (METAR- og TAF-rapporter).

Tilgjengelige stasjoner er representert av de røde og gule prikkene på kartet.

Hold musepekeren over prikken for å se navnet på stasjonen.

Klikk så for å se værobservasjoner og -varsler.

For å forandre kartet kan du klikke på den grønne knappen med svart kryss for å zoome inn, på den grønne knappen med strek for å zoome ut, eller på de grønne pilene for å se tilstøtende kart.


METAR-TAF: